Time,TemperatureF,DewpointF,PressureIn,WindDirection,WindDirectionDegrees,WindSpeedMPH,WindSpeedGustMPH,Humidity,HourlyPrecipIn,Conditions,Clouds,dailyrainin,SoftwareType,DateUTC
2013-02-01 14:36:00,-999.0,-99.9,29.93,North,-999,-999.0,-999.0,-999,-99.99,,,0.00,weatherlink.com 1.10,2013-02-01 19:36:00,
2013-02-01 14:49:00,25.4,7.0,29.94,West,281,11.0,-999.0,46,-99.99,,,0.00,weatherlink.com 1.10,2013-02-01 19:49:00,
2013-02-01 15:05:00,26.5,8.0,29.95,WNW,287,13.0,-999.0,46,-99.99,,,0.00,weatherlink.com 1.10,2013-02-01 20:05:00,
2013-02-01 15:20:00,-999.0,-99.9,29.96,North,-999,-999.0,-999.0,-999,-99.99,,,0.00,weatherlink.com 1.10,2013-02-01 20:20:00,
2013-02-01 15:35:00,-999.0,-99.9,29.96,North,-999,-999.0,-999.0,-999,-99.99,,,0.00,weatherlink.com 1.10,2013-02-01 20:35:00,
2013-02-01 15:50:00,-999.0,-99.9,29.98,North,-999,-999.0,-999.0,-999,-99.99,,,0.00,weatherlink.com 1.10,2013-02-01 20:50:00,
2013-02-01 16:06:00,-999.0,-99.9,29.99,North,-999,-999.0,-999.0,-999,-99.99,,,0.00,weatherlink.com 1.10,2013-02-01 21:06:00,
2013-02-01 16:21:00,-999.0,-99.9,29.99,North,-999,-999.0,-999.0,-999,-99.99,,,0.00,weatherlink.com 1.10,2013-02-01 21:21:00,
2013-02-01 16:36:00,-999.0,-99.9,30.00,North,-999,-999.0,-999.0,-999,-99.99,,,0.00,weatherlink.com 1.10,2013-02-01 21:36:00,
2013-02-01 16:52:00,25.4,6.0,30.02,West,278,5.0,-999.0,44,-99.99,,,0.00,weatherlink.com 1.10,2013-02-01 21:52:00,
2013-02-01 17:07:00,25.0,7.0,30.02,West,264,9.0,-999.0,47,-99.99,,,0.00,weatherlink.com 1.10,2013-02-01 22:07:00,
2013-02-01 17:22:00,24.8,7.0,30.04,WNW,289,7.0,-999.0,47,-99.99,,,0.00,weatherlink.com 1.10,2013-02-01 22:22:00,
2013-02-01 17:53:00,24.4,8.0,30.06,WNW,298,8.0,-999.0,50,-99.99,,,0.00,weatherlink.com 1.10,2013-02-01 22:53:00,
2013-02-01 18:08:00,24.2,8.0,30.08,NW,311,6.0,-999.0,50,-99.99,,,0.00,weatherlink.com 1.10,2013-02-01 23:08:00,
2013-02-01 18:25:00,23.6,8.0,30.09,West,281,10.0,-999.0,52,-99.99,,,0.00,weatherlink.com 1.10,2013-02-01 23:25:00,
2013-02-01 18:40:00,23.4,8.0,30.10,NW,318,9.0,-999.0,53,-99.99,,,0.00,weatherlink.com 1.10,2013-02-01 23:40:00,
2013-02-01 18:55:00,23.3,8.0,30.11,WNW,284,4.0,-999.0,53,-99.99,,,0.00,weatherlink.com 1.10,2013-02-01 23:55:00,
2013-02-01 19:10:00,23.1,9.0,30.12,SW,223,6.0,-999.0,55,-99.99,,,0.00,weatherlink.com 1.10,2013-02-02 00:10:00,
2013-02-01 19:25:00,22.9,8.0,30.12,NW,306,6.0,-999.0,54,-99.99,,,0.00,weatherlink.com 1.10,2013-02-02 00:25:00,
2013-02-01 19:40:00,22.4,8.0,30.13,WNW,290,7.0,-999.0,54,-99.99,,,0.00,weatherlink.com 1.10,2013-02-02 00:40:00,
2013-02-01 19:55:00,22.1,8.0,30.14,West,274,4.0,-999.0,56,-99.99,,,0.00,weatherlink.com 1.10,2013-02-02 00:55:00,
2013-02-01 20:12:00,21.6,9.0,30.15,West,267,7.0,-999.0,58,-99.99,,,0.00,weatherlink.com 1.10,2013-02-02 01:12:00,
2013-02-01 20:26:00,21.4,9.0,30.15,NW,309,11.0,-999.0,58,-99.99,,,0.00,weatherlink.com 1.10,2013-02-02 01:26:00,
2013-02-01 20:41:00,21.2,8.0,30.16,WNW,292,4.0,-999.0,58,-99.99,,,0.00,weatherlink.com 1.10,2013-02-02 01:41:00,
2013-02-01 20:56:00,21.0,8.0,30.16,NW,316,6.0,-999.0,57,-99.99,,,0.00,weatherlink.com 1.10,2013-02-02 01:56:00,
2013-02-01 21:12:00,20.9,7.0,30.17,WSW,252,3.0,-999.0,56,-99.99,,,0.00,weatherlink.com 1.10,2013-02-02 02:12:00,
2013-02-01 21:27:00,20.7,7.0,30.18,WNW,290,3.0,-999.0,56,-99.99,,,0.00,weatherlink.com 1.10,2013-02-02 02:27:00,
2013-02-01 21:42:00,20.5,7.0,30.18,SW,234,5.0,-999.0,57,-99.99,,,0.00,weatherlink.com 1.10,2013-02-02 02:42:00,
2013-02-01 21:57:00,20.3,7.0,30.19,NW,320,8.0,-999.0,57,-99.99,,,0.00,weatherlink.com 1.10,2013-02-02 02:57:00,
2013-02-01 22:13:00,20.0,7.0,30.20,West,262,5.0,-999.0,58,-99.99,,,0.00,weatherlink.com 1.10,2013-02-02 03:13:00,
2013-02-01 22:28:00,19.8,7.0,30.20,West,281,11.0,-999.0,58,-99.99,,,0.00,weatherlink.com 1.10,2013-02-02 03:28:00,
2013-02-01 22:43:00,19.7,7.0,30.21,WSW,257,7.0,-999.0,58,-99.99,,,0.00,weatherlink.com 1.10,2013-02-02 03:43:00,
2013-02-01 23:00:00,19.5,7.0,30.22,WNW,286,8.0,-999.0,58,-99.99,,,0.00,weatherlink.com 1.10,2013-02-02 04:00:00,
2013-02-01 23:15:00,19.3,7.0,30.22,WNW,284,6.0,-999.0,58,-99.99,,,0.00,weatherlink.com 1.10,2013-02-02 04:15:00,
2013-02-01 23:30:00,19.0,6.0,30.22,WNW,297,6.0,-999.0,58,-99.99,,,0.00,weatherlink.com 1.10,2013-02-02 04:30:00,
2013-02-01 23:45:00,18.9,6.0,30.23,WNW,283,6.0,-999.0,57,-99.99,,,0.00,weatherlink.com 1.10,2013-02-02 04:45:00,